الصفحة الرئيسية
METAR-TAF:

METAR-TAF

مطار :

Grootfontein, ناميبيا

دائرة عرض: 19-36S, خط طول: 018-07E, ارتفاع: 1411 متر

مراقبة الطقس الحالي

تاريخ ووقت الإصدار 18 دقيقة قبل الساعة 18:00UTC
ريح 4 عقدة من الشمال الشرقي
درجة الحرارة 29°درجة مئوية
الرطوبة 25%
ضغط 1018 hPa
الرؤية 10 كم أو أكثر
غيوم قليلة على ارتفاع 4500 قدم, مزنة ركامية.
عاصفة رعدية, (خفيف

METAR: FYGF 141800Z 04004KT 9999 -TS FEW045CB 29/07 Q1018

زمن: 20:18 (18:18 UTC)

توقعات

تاريخ ووقت الإصدار 1ساعة و 18 دقيقة قبل الساعة 17:00UTC
التوقعات صالحة من14 الساعة 18 UTC إلى 15 الساعة 03 UTC
ريح 4 عقدة من الشمال/الشمال الشرقي
الرؤية 10 كم أو أكثر
غيوم قليلة على ارتفاع 4500 قدم, مزن ركامية عمودية.
نظرية الاحتمالات 30% :
مؤقت
من 14 الساعة 18 UTC إلى 15 الساعة 00 UTC
ريح 7 عقدة من الغرب
غيوم قليلة على ارتفاع 4000 قدم, مزنة ركامية.
غيوم متفرقة على ارتفاع 4500 قدم, مزن ركامية عمودية.
عاصفة رعدية, مطر خفيف

TAF: FYGF 141700Z 1418/1503 03004KT 9999 FEW045TCU PROB30 TEMPO 1418/1500 28007KT -TSRA FEW040CB SCT045TCU

أرصاد الطقس والتوقعات من أكثر من 4000 مطار (تقارير الطقس للمطار METAR والتنبؤ بالطقس بالمطارTAF).

المحطات المتاحة هي النقط الصفراء والحمراء على الخريطة.

حرك المؤشر فوق النقطة لمعرفة اسم المحطة.

ثم انقر لمعرفة أرصاد وتوقعات الطقس.

لتغيير الخارطة: اضغط على الأزرار الخضراء مع رمز الصليب الأسود للتكبير. على الزر الأخضر مع شرطة للتصغير، أو على الأسهم الخضراء للخرائط المجاورة.


METAR-TAF: